createdAt,value
2017-10-19T00:01:36.960Z,28.13
2017-10-19T00:04:03.252Z,26.60
2017-10-19T00:06:30.250Z,27.30
2017-10-19T00:08:56.462Z,28.70
2017-10-19T00:11:22.702Z,27.90
2017-10-19T00:13:48.906Z,27.50
2017-10-19T00:16:15.188Z,27.00
2017-10-19T00:18:42.195Z,29.40
2017-10-19T00:21:08.427Z,29.73
2017-10-19T00:23:34.668Z,29.87
2017-10-19T00:26:00.971Z,29.80
2017-10-19T00:28:27.184Z,30.10
2017-10-19T00:30:53.464Z,28.03
2017-10-19T00:33:20.435Z,27.87
2017-10-19T00:35:47.423Z,28.70
2017-10-19T00:38:13.638Z,29.70
2017-10-19T00:40:39.915Z,29.53
2017-10-19T00:43:06.883Z,28.67
2017-10-19T00:45:33.885Z,28.17
2017-10-19T00:48:00.133Z,27.90
2017-10-19T00:50:26.370Z,28.70
2017-10-19T00:52:52.597Z,29.47
2017-10-19T00:55:19.607Z,29.97
2017-10-19T00:57:46.584Z,29.40
2017-10-19T01:00:13.594Z,30.90
2017-10-19T01:02:39.815Z,31.73
2017-10-19T01:05:06.063Z,31.50
2017-10-19T01:07:32.322Z,31.73
2017-10-19T01:09:59.294Z,29.83
2017-10-19T01:12:25.576Z,30.20
2017-10-19T01:14:51.847Z,31.20
2017-10-19T01:17:18.138Z,28.20
2017-10-19T01:19:44.373Z,27.80
2017-10-19T01:22:11.380Z,27.70
2017-10-19T01:24:37.622Z,30.20
2017-10-19T01:27:03.884Z,30.33
2017-10-19T01:29:30.864Z,30.50
2017-10-19T01:31:57.117Z,30.73
2017-10-19T01:34:23.370Z,31.57
2017-10-19T01:36:49.603Z,29.87
2017-10-19T01:39:15.823Z,30.53
2017-10-19T01:41:42.078Z,30.50
2017-10-19T01:44:08.319Z,31.00
2017-10-19T01:46:35.326Z,30.57
2017-10-19T01:49:01.564Z,30.47
2017-10-19T01:51:27.808Z,30.40
2017-10-19T01:53:54.039Z,31.67
2017-10-19T01:56:21.044Z,31.37
2017-10-19T01:58:47.267Z,30.87
2017-10-19T02:01:13.494Z,30.30
2017-10-19T02:03:39.713Z,29.50
2017-10-19T02:06:05.983Z,31.67
2017-10-19T02:08:32.957Z,31.70
2017-10-19T02:10:59.232Z,31.23
2017-10-19T02:13:25.478Z,32.00
2017-10-19T02:15:51.778Z,34.87
2017-10-19T02:18:18.033Z,34.53
2017-10-19T02:20:44.383Z,35.67
2017-10-19T02:23:11.342Z,32.33
2017-10-19T02:25:37.691Z,35.77
2017-10-19T02:28:03.996Z,31.63
2017-10-19T02:30:30.276Z,32.60
2017-10-19T02:32:56.544Z,34.40
2017-10-19T02:35:22.780Z,33.97
2017-10-19T02:37:49.035Z,32.13
2017-10-19T02:40:15.312Z,34.20
2017-10-19T02:42:41.610Z,33.67
2017-10-19T02:45:07.827Z,30.67
2017-10-19T02:47:34.071Z,29.87
2017-10-19T02:50:00.280Z,30.00
2017-10-19T02:52:26.568Z,33.23
2017-10-19T02:54:53.553Z,33.93
2017-10-19T02:57:19.817Z,30.00
2017-10-19T02:59:46.041Z,31.23
2017-10-19T03:02:12.327Z,31.67
2017-10-19T03:04:38.567Z,33.73
2017-10-19T03:07:04.834Z,31.97
2017-10-19T03:09:31.059Z,30.43
2017-10-19T03:11:58.123Z,31.20
2017-10-19T03:14:25.395Z,32.50
2017-10-19T03:16:51.668Z,31.17
2017-10-19T03:19:18.693Z,32.87
2017-10-19T03:21:44.915Z,30.03
2017-10-19T03:24:11.148Z,32.00
2017-10-19T03:26:37.448Z,30.70
2017-10-19T03:29:03.700Z,30.70
2017-10-19T03:31:29.957Z,32.67
2017-10-19T03:33:56.197Z,32.40
2017-10-19T03:36:22.499Z,32.80
2017-10-19T03:38:48.786Z,33.70
2017-10-19T03:41:15.796Z,33.40
2017-10-19T03:43:42.034Z,34.20
2017-10-19T03:46:08.331Z,33.87
2017-10-19T03:48:34.600Z,31.37
2017-10-19T03:51:00.847Z,33.27
2017-10-19T03:53:27.812Z,34.10
2017-10-19T03:55:54.089Z,33.70
2017-10-19T03:58:20.465Z,32.87
2017-10-19T04:00:46.719Z,31.87
2017-10-19T04:03:12.987Z,29.70
2017-10-19T04:05:39.225Z,32.30
2017-10-19T04:08:05.487Z,34.40
2017-10-19T04:10:31.720Z,36.33
2017-10-19T04:12:58.004Z,31.17
2017-10-19T04:15:24.357Z,35.50
2017-10-19T04:17:50.575Z,34.40
2017-10-19T04:20:17.631Z,34.17
2017-10-19T04:22:43.905Z,33.73
2017-10-19T04:25:10.124Z,32.87
2017-10-19T04:27:36.366Z,30.90
2017-10-19T04:30:02.600Z,34.43
2017-10-19T04:32:28.845Z,31.70
2017-10-19T04:34:55.100Z,35.43
2017-10-19T04:37:21.376Z,35.03
2017-10-19T04:39:47.599Z,34.50
2017-10-19T04:42:13.879Z,36.07
2017-10-19T04:44:40.915Z,36.50
2017-10-19T04:47:07.255Z,35.63
2017-10-19T04:49:34.229Z,35.67
2017-10-19T04:52:00.520Z,38.23
2017-10-19T04:54:26.770Z,36.20
2017-10-19T04:56:53.004Z,35.60
2017-10-19T04:59:19.239Z,35.57
2017-10-19T05:01:45.553Z,34.53
2017-10-19T05:04:11.817Z,35.00
2017-10-19T05:06:38.049Z,36.03
2017-10-19T05:09:04.260Z,37.43
2017-10-19T05:11:30.526Z,35.93
2017-10-19T05:13:56.768Z,36.80
2017-10-19T05:16:23.040Z,35.27
2017-10-19T05:18:49.434Z,33.83
2017-10-19T05:21:16.455Z,31.97
2017-10-19T05:23:42.714Z,34.53
2017-10-19T05:26:09.688Z,36.43
2017-10-19T05:28:35.939Z,37.00
2017-10-19T05:31:02.207Z,37.07
2017-10-19T05:33:28.533Z,34.60
2017-10-19T05:35:54.863Z,37.77
2017-10-19T05:38:21.887Z,35.10
2017-10-19T05:40:48.183Z,37.80
2017-10-19T05:43:14.572Z,35.33
2017-10-19T05:45:40.908Z,35.50
2017-10-19T05:48:07.278Z,34.80
2017-10-19T05:50:33.591Z,37.40
2017-10-19T05:52:59.927Z,34.00
2017-10-19T05:55:26.196Z,34.40
2017-10-19T05:57:52.602Z,34.40
2017-10-19T06:00:18.928Z,34.77
2017-10-19T06:02:45.200Z,36.60
2017-10-19T06:05:11.540Z,34.30
2017-10-19T06:07:37.850Z,35.53
2017-10-19T06:10:04.840Z,35.60
2017-10-19T06:12:31.075Z,36.23
2017-10-19T06:14:57.372Z,36.60
2017-10-19T06:17:32.566Z,34.80
2017-10-19T06:19:58.839Z,35.00
2017-10-19T06:22:25.239Z,33.50
2017-10-19T06:24:51.535Z,32.63
2017-10-19T06:27:17.805Z,35.33
2017-10-19T06:29:44.142Z,37.37
2017-10-19T06:32:10.454Z,33.53
2017-10-19T06:34:36.693Z,35.93
2017-10-19T06:37:02.976Z,36.40
2017-10-19T06:39:29.388Z,36.57
2017-10-19T06:41:56.364Z,37.07
2017-10-19T06:44:22.707Z,35.87
2017-10-19T06:46:48.947Z,38.23
2017-10-19T06:49:15.211Z,38.27
2017-10-19T06:51:41.471Z,34.03
2017-10-19T06:54:07.822Z,37.67
2017-10-19T06:56:34.097Z,40.90
2017-10-19T06:59:00.371Z,41.60
2017-10-19T07:01:26.600Z,35.83
2017-10-19T07:03:52.893Z,41.80
2017-10-19T07:06:19.358Z,44.10
2017-10-19T07:08:45.737Z,41.70
2017-10-19T07:11:12.060Z,43.23
2017-10-19T07:13:38.358Z,48.83
2017-10-19T07:16:04.576Z,48.40
2017-10-19T07:18:30.813Z,45.47
2017-10-19T07:20:57.051Z,46.20
2017-10-19T07:23:24.113Z,48.10
2017-10-19T07:25:50.388Z,48.50
2017-10-19T07:28:17.444Z,54.17
2017-10-19T07:30:43.757Z,55.30
2017-10-19T07:33:10.115Z,55.80
2017-10-19T07:35:36.443Z,53.50
2017-10-19T07:38:02.763Z,56.70
2017-10-19T07:40:29.040Z,55.30
2017-10-19T07:42:55.345Z,55.93
2017-10-19T07:45:21.644Z,55.80
2017-10-19T07:47:47.896Z,54.03
2017-10-19T07:50:21.161Z,51.33
2017-10-19T07:52:48.164Z,51.87
2017-10-19T07:55:14.420Z,53.90
2017-10-19T07:57:40.627Z,51.60
2017-10-19T08:00:07.598Z,57.87
2017-10-19T08:02:33.823Z,56.73
2017-10-19T08:05:00.074Z,57.87
2017-10-19T08:07:27.032Z,59.30
2017-10-19T08:09:53.287Z,60.80
2017-10-19T08:12:20.509Z,58.90
2017-10-19T08:14:46.809Z,62.80
2017-10-19T08:17:13.556Z,60.50
2017-10-19T08:19:40.552Z,64.47
2017-10-19T08:22:06.931Z,65.03
2017-10-19T08:24:33.920Z,61.93
2017-10-19T08:27:00.170Z,67.80
2017-10-19T08:29:26.460Z,62.37
2017-10-19T08:31:53.421Z,64.73
2017-10-19T08:34:19.669Z,62.80
2017-10-19T08:36:45.960Z,61.03
2017-10-19T08:39:12.475Z,60.47
2017-10-19T08:41:39.495Z,62.20
2017-10-19T08:44:05.781Z,56.60
2017-10-19T08:46:32.204Z,65.47
2017-10-19T08:48:58.487Z,65.10
2017-10-19T08:51:24.746Z,61.93
2017-10-19T08:53:51.024Z,67.10
2017-10-19T08:56:17.397Z,67.20
2017-10-19T08:58:44.586Z,68.90
2017-10-19T09:01:10.908Z,66.63
2017-10-19T09:03:37.189Z,66.03
2017-10-19T09:06:04.483Z,73.17
2017-10-19T09:08:30.718Z,73.37
2017-10-19T09:10:56.971Z,74.27
2017-10-19T09:13:23.219Z,73.70
2017-10-19T09:15:49.430Z,73.03
2017-10-19T09:18:15.655Z,74.07
2017-10-19T09:20:41.883Z,77.27
2017-10-19T09:23:08.111Z,73.40
2017-10-19T09:25:34.429Z,81.07
2017-10-19T09:28:00.753Z,73.73
2017-10-19T09:30:27.040Z,75.17
2017-10-19T09:32:54.054Z,74.70
2017-10-19T09:35:20.329Z,73.10
2017-10-19T09:37:47.466Z,70.57
2017-10-19T09:40:14.585Z,69.00
2017-10-19T09:42:40.908Z,69.97
2017-10-19T09:45:07.248Z,68.77
2017-10-19T09:47:33.486Z,65.77
2017-10-19T09:49:59.735Z,66.23
2017-10-19T09:52:27.209Z,63.53
2017-10-19T09:55:05.955Z,62.70
2017-10-19T09:57:32.263Z,62.87
2017-10-19T09:59:58.538Z,64.43
2017-10-19T10:02:24.848Z,62.03
2017-10-19T10:04:52.115Z,62.83
2017-10-19T10:07:18.485Z,61.30
2017-10-19T10:09:44.832Z,61.20
2017-10-19T10:12:11.132Z,62.40
2017-10-19T10:14:38.247Z,59.50
2017-10-19T10:17:04.568Z,60.23
2017-10-19T10:19:30.803Z,58.70
2017-10-19T10:21:57.100Z,61.20
2017-10-19T10:24:23.368Z,58.90
2017-10-19T10:26:49.628Z,58.10
2017-10-19T10:29:16.626Z,59.47
2017-10-19T10:31:42.939Z,59.40
2017-10-19T10:34:09.161Z,62.30
2017-10-19T10:36:35.484Z,61.90
2017-10-19T10:39:01.795Z,61.83
2017-10-19T10:41:28.873Z,61.63
2017-10-19T10:43:55.169Z,61.07
2017-10-19T10:46:22.245Z,60.27
2017-10-19T10:48:48.549Z,61.70
2017-10-19T10:51:15.560Z,61.73
2017-10-19T10:53:41.897Z,59.63
2017-10-19T10:56:08.157Z,58.17
2017-10-19T10:58:34.437Z,55.33
2017-10-19T11:01:00.691Z,57.63
2017-10-19T11:03:26.931Z,58.20
2017-10-19T11:05:54.935Z,62.20
2017-10-19T11:08:21.190Z,61.80
2017-10-19T11:10:47.523Z,61.27
2017-10-19T11:13:13.758Z,61.60
2017-10-19T11:15:40.128Z,61.00
2017-10-19T11:18:06.451Z,63.37
2017-10-19T11:20:32.773Z,62.20
2017-10-19T11:22:59.007Z,63.10
2017-10-19T11:25:26.013Z,66.50
2017-10-19T12:28:09.205Z,69.73
2017-10-19T12:30:35.546Z,72.63
2017-10-19T12:33:01.877Z,69.40
2017-10-19T12:35:28.121Z,75.07
2017-10-19T12:37:54.419Z,71.97
2017-10-19T12:40:20.668Z,75.70
2017-10-19T12:42:46.974Z,77.33
2017-10-19T12:45:13.244Z,73.37
2017-10-19T12:47:39.502Z,72.37
2017-10-19T12:50:06.506Z,73.93
2017-10-19T12:52:32.719Z,77.53
2017-10-19T12:54:58.978Z,72.80
2017-10-19T12:57:25.211Z,73.77
2017-10-19T12:59:51.461Z,74.83
2017-10-19T13:02:18.415Z,72.00
2017-10-19T13:04:45.487Z,71.10
2017-10-19T13:07:11.700Z,64.57
2017-10-19T13:09:38.053Z,68.63
2017-10-19T13:12:04.270Z,68.40
2017-10-19T13:14:30.490Z,71.83
2017-10-19T13:16:56.805Z,69.10
2017-10-19T13:19:23.059Z,68.70
2017-10-19T13:21:49.359Z,68.57
2017-10-19T13:24:16.303Z,67.47
2017-10-19T13:26:44.706Z,66.77
2017-10-19T13:29:10.952Z,62.67
2017-10-19T13:31:44.059Z,64.40
2017-10-19T13:34:10.296Z,64.37
2017-10-19T13:36:36.513Z,65.47
2017-10-19T13:39:02.744Z,63.57
2017-10-19T13:41:29.032Z,68.60
2017-10-19T13:43:55.250Z,66.00
2017-10-19T13:46:21.555Z,67.10
2017-10-19T13:48:47.883Z,68.20
2017-10-19T13:51:15.368Z,195.97
2017-10-19T13:53:41.639Z,197.13
2017-10-19T13:56:07.877Z,85.27
2017-10-19T13:58:34.118Z,81.43
2017-10-19T14:01:00.358Z,84.60
2017-10-19T14:03:27.406Z,351.00
2017-10-19T14:05:54.380Z,100.43
2017-10-19T14:08:20.628Z,94.03
2017-10-19T14:10:46.914Z,102.57
2017-10-19T14:13:13.164Z,79.27
2017-10-19T14:15:39.422Z,140.07
2017-10-19T14:18:05.675Z,91.10
2017-10-19T14:20:32.675Z,125.87
2017-10-19T14:22:58.888Z,224.60
2017-10-19T14:25:25.221Z,207.13
2017-10-19T14:27:51.449Z,141.97
2017-10-19T14:30:17.744Z,85.97
2017-10-19T14:32:43.964Z,79.20
2017-10-19T14:35:11.140Z,81.17
2017-10-19T14:37:37.395Z,92.97
2017-10-19T14:40:03.652Z,91.03
2017-10-19T14:42:29.929Z,229.30
2017-10-19T14:44:56.279Z,114.67
2017-10-19T14:47:22.560Z,146.60
2017-10-19T14:49:48.848Z,133.13
2017-10-19T14:52:15.090Z,109.33
2017-10-19T14:54:41.375Z,83.53
2017-10-19T14:57:07.636Z,716.90
2017-10-19T14:59:33.906Z,298.40
2017-10-19T15:02:00.116Z,227.67
2017-10-19T15:04:26.377Z,712.30
2017-10-19T15:06:53.347Z,382.63
2017-10-19T15:09:20.103Z,267.30
2017-10-19T15:11:46.335Z,703.20
2017-10-19T15:14:12.641Z,139.57
2017-10-19T15:16:38.886Z,371.67
2017-10-19T15:19:05.127Z,317.67
2017-10-19T15:21:31.427Z,213.53
2017-10-19T15:23:57.659Z,223.47
2017-10-19T15:26:23.912Z,183.63
2017-10-19T15:28:50.144Z,138.77
2017-10-19T15:31:16.446Z,139.40
2017-10-19T15:33:46.367Z,112.47
2017-10-19T15:36:13.748Z,154.90
2017-10-19T15:38:40.020Z,105.07
2017-10-19T15:41:07.040Z,95.87
2017-10-19T15:43:33.296Z,86.67
2017-10-19T15:45:59.823Z,85.80
2017-10-19T15:48:26.812Z,98.20
2017-10-19T15:51:07.787Z,185.60
2017-10-19T15:53:34.072Z,319.20
2017-10-19T15:56:01.075Z,163.80
2017-10-19T15:58:27.304Z,155.47
2017-10-19T16:00:53.581Z,171.93
2017-10-19T16:03:20.652Z,248.33
2017-10-19T16:05:46.952Z,541.43
2017-10-19T16:08:13.989Z,439.17
2017-10-19T16:10:40.311Z,418.83
2017-10-19T16:13:06.563Z,359.83
2017-10-19T16:15:34.021Z,276.17
2017-10-19T16:18:01.062Z,260.50
2017-10-19T16:20:27.403Z,153.10
2017-10-19T16:22:54.436Z,111.57
2017-10-19T16:25:21.637Z,125.03
2017-10-19T16:27:47.938Z,122.10
2017-10-19T16:30:14.325Z,104.30
2017-10-19T16:32:40.582Z,90.47
2017-10-19T16:35:07.698Z,86.07
2017-10-19T16:37:34.148Z,84.17
2017-10-19T16:40:01.190Z,96.53
2017-10-19T16:42:27.408Z,89.27
2017-10-19T16:44:53.696Z,87.33
2017-10-19T16:47:20.065Z,88.20
2017-10-19T16:49:46.388Z,98.43
2017-10-19T16:52:12.694Z,90.70
2017-10-19T16:54:38.980Z,109.40
2017-10-19T16:57:05.305Z,149.23
2017-10-19T16:59:33.633Z,179.40
2017-10-19T17:02:00.670Z,143.97
2017-10-19T17:04:27.080Z,177.90
2017-10-19T17:06:53.363Z,156.67
2017-10-19T17:09:21.064Z,122.50
2017-10-19T17:11:47.535Z,104.43
2017-10-19T17:14:13.948Z,97.87
2017-10-19T17:16:41.300Z,91.43
2017-10-19T17:19:08.195Z,90.97
2017-10-19T17:21:34.659Z,88.77
2017-10-19T17:24:02.621Z,90.30
2017-10-19T17:26:29.908Z,86.53
2017-10-19T17:28:56.195Z,90.00
2017-10-19T17:31:23.232Z,92.03
2017-10-19T17:33:54.488Z,109.40
2017-10-19T17:36:21.135Z,91.87
2017-10-19T17:38:48.153Z,95.13
2017-10-19T17:41:14.430Z,101.50
2017-10-19T17:43:40.666Z,94.33
2017-10-19T17:46:06.932Z,108.10
2017-10-19T17:48:33.718Z,86.67
2017-10-19T17:51:00.295Z,85.20
2017-10-19T17:53:26.645Z,126.27
2017-10-19T17:55:53.000Z,82.13
2017-10-19T17:58:19.985Z,83.97
2017-10-19T18:00:46.330Z,83.53
2017-10-19T18:03:12.542Z,83.50
2017-10-19T18:05:38.796Z,83.80
2017-10-19T18:08:05.259Z,85.10
2017-10-19T18:10:31.656Z,83.30
2017-10-19T18:13:04.065Z,84.03
2017-10-19T18:15:32.559Z,80.80
2017-10-19T18:17:59.962Z,84.47
2017-10-19T18:20:28.164Z,77.67
2017-10-19T18:22:55.102Z,76.27
2017-10-19T18:25:21.411Z,85.20
2017-10-19T18:27:48.488Z,84.67
2017-10-19T18:30:15.487Z,78.90
2017-10-19T18:32:41.727Z,81.83
2017-10-19T18:35:08.026Z,86.30
2017-10-19T18:37:34.272Z,85.23
2017-10-19T18:40:00.880Z,80.67
2017-10-19T18:42:27.131Z,83.27
2017-10-19T18:44:53.409Z,81.70
2017-10-19T18:47:19.696Z,88.37
2017-10-19T18:49:46.015Z,88.00
2017-10-19T18:52:12.268Z,85.70
2017-10-19T18:54:38.506Z,87.23
2017-10-19T18:57:04.776Z,81.50
2017-10-19T18:59:31.721Z,92.20
2017-10-19T19:01:58.711Z,91.63
2017-10-19T19:04:25.215Z,86.90
2017-10-19T19:06:51.487Z,93.47
2017-10-19T19:09:19.215Z,90.10
2017-10-19T19:11:45.658Z,91.60
2017-10-19T19:14:12.616Z,96.90
2017-10-19T19:16:42.060Z,91.20
2017-10-19T19:19:11.481Z,92.67
2017-10-19T19:21:38.429Z,91.33
2017-10-19T19:24:07.968Z,90.10
2017-10-19T19:26:49.803Z,89.90
2017-10-19T19:29:25.408Z,82.73
2017-10-19T19:31:51.765Z,92.47
2017-10-19T19:34:18.116Z,93.63
2017-10-19T19:36:44.557Z,96.90
2017-10-19T19:39:11.536Z,94.90
2017-10-19T19:41:37.763Z,95.13
2017-10-19T19:44:09.253Z,90.10
2017-10-19T19:46:35.542Z,90.73
2017-10-19T19:49:01.800Z,95.27
2017-10-19T19:51:28.124Z,95.37
2017-10-19T19:53:54.354Z,97.03
2017-10-19T19:56:21.298Z,93.83
2017-10-19T19:58:47.540Z,96.37
2017-10-19T20:01:13.801Z,87.30
2017-10-19T20:03:40.850Z,84.03
2017-10-19T20:06:07.844Z,95.33
2017-10-19T20:08:34.112Z,84.30
2017-10-19T20:11:01.108Z,90.60
2017-10-19T20:13:27.593Z,79.33
2017-10-19T20:15:54.556Z,81.27
2017-10-19T20:18:20.827Z,85.97
2017-10-19T20:20:47.067Z,86.33
2017-10-19T20:23:13.379Z,78.13
2017-10-19T20:25:39.616Z,86.53
2017-10-19T20:28:05.863Z,90.90
2017-10-19T20:30:32.108Z,92.40
2017-10-19T20:32:59.092Z,89.03
2017-10-19T20:35:25.318Z,88.03
2017-10-19T20:37:51.608Z,83.93
2017-10-19T20:40:18.595Z,88.80
2017-10-19T20:42:45.591Z,95.83
2017-10-19T20:45:12.576Z,85.40
2017-10-19T20:47:38.855Z,88.60
2017-10-19T20:50:05.079Z,88.37
2017-10-19T20:52:31.335Z,88.20
2017-10-19T20:54:58.308Z,90.83
2017-10-19T20:57:24.578Z,86.80
2017-10-19T20:59:50.869Z,87.10
2017-10-19T21:02:17.148Z,84.63
2017-10-19T21:04:43.391Z,79.50
2017-10-19T21:07:10.372Z,88.60
2017-10-19T21:09:36.624Z,83.97
2017-10-19T21:12:02.898Z,89.73
2017-10-19T21:14:29.180Z,83.00
2017-10-19T21:16:55.425Z,82.37
2017-10-19T21:19:21.910Z,84.07
2017-10-19T21:21:48.136Z,88.00
2017-10-19T21:24:14.422Z,85.93
2017-10-19T21:26:40.675Z,75.57
2017-10-19T21:29:07.048Z,73.27
2017-10-19T21:31:33.283Z,86.03
2017-10-19T21:33:59.550Z,85.27
2017-10-19T21:36:26.519Z,86.00
2017-10-19T21:38:53.512Z,83.13
2017-10-19T21:41:19.720Z,86.30
2017-10-19T21:43:45.993Z,85.17
2017-10-19T21:46:12.195Z,89.37
2017-10-19T21:48:38.480Z,90.93
2017-10-19T21:51:05.464Z,87.27
2017-10-19T21:53:31.743Z,87.10
2017-10-19T21:55:57.977Z,87.57
2017-10-19T21:58:24.256Z,91.30
2017-10-19T22:00:50.519Z,84.87
2017-10-19T22:03:18.199Z,82.60
2017-10-19T22:05:44.439Z,84.53
2017-10-19T22:08:10.699Z,88.70
2017-10-19T22:10:37.029Z,83.87
2017-10-19T22:13:03.288Z,88.33
2017-10-19T22:15:29.531Z,85.87
2017-10-19T22:17:56.552Z,88.10
2017-10-19T22:20:22.764Z,84.67
2017-10-19T22:22:49.023Z,85.17
2017-10-19T22:25:15.987Z,85.07
2017-10-19T22:27:42.966Z,87.10
2017-10-19T22:30:09.195Z,82.07
2017-10-19T22:32:35.459Z,84.73
2017-10-19T22:35:01.696Z,86.83
2017-10-19T22:37:28.660Z,78.43
2017-10-19T22:39:55.640Z,81.23
2017-10-19T22:42:21.924Z,79.33
2017-10-19T22:44:48.968Z,87.80
2017-10-19T22:47:16.946Z,70.10
2017-10-19T22:49:43.374Z,82.10
2017-10-19T22:52:09.716Z,75.40
2017-10-19T22:54:36.048Z,68.23
2017-10-19T22:57:02.271Z,75.40
2017-10-19T22:59:28.531Z,70.23
2017-10-19T23:01:54.780Z,77.07
2017-10-19T23:04:21.056Z,73.40
2017-10-19T23:06:48.084Z,80.50
2017-10-19T23:09:15.065Z,71.23
2017-10-19T23:11:41.289Z,73.60
2017-10-19T23:14:07.545Z,76.20
2017-10-19T23:16:33.828Z,80.40
2017-10-19T23:19:00.104Z,75.70
2017-10-19T23:21:26.365Z,77.50
2017-10-19T23:23:53.375Z,77.47
2017-10-19T23:26:19.606Z,77.57
2017-10-19T23:28:45.839Z,70.53
2017-10-19T23:31:12.035Z,71.50
2017-10-19T23:33:38.319Z,76.77
2017-10-19T23:36:04.542Z,68.60
2017-10-19T23:38:30.798Z,74.30
2017-10-19T23:40:57.785Z,66.60
2017-10-19T23:43:24.026Z,69.87
2017-10-19T23:45:50.272Z,68.60
2017-10-19T23:48:16.547Z,66.00
2017-10-19T23:50:42.777Z,64.17
2017-10-19T23:53:09.084Z,60.07
2017-10-19T23:55:36.068Z,64.33
2017-10-19T23:58:02.336Z,64.00
